Terminal Aerodrome Forecast
Issued by NWS Midland/Odessa, TX

Home | Current Version | Previous Version | Text Only | Print | Product List | Glossary On
Versions: 1 2 3 4 5 6 7 8 9 10 11 12 13 14 15 16 17 18 19 20 21 22 23 24
000
FTUS44 KMAF 271700 RRA
TAFMAF
TAF
KMAF 271752Z 2718/2818 18012KT 6SM HZ BKN030
     FM272000 16015G25KT P6SM SCT050 SCT300
     FM280100 16015KT P6SM BKN100
     FM280600 16012KT P6SM BKN012
     FM281000 16008KT 4SM BR OVC012
      TEMPO 2810/2814 2SM BR OVC008
     FM281500 17015G25KT P6SM SCT030 BKN250=

USA.gov is the U.S. government's official web portal to all federal, state and local government web resources and services.